sensor_id;sensor_type;location;lat;lon;timestamp;P1;durP1;ratioP1;P2;durP2;ratioP2
33954;SDS011;20233;50.804;7.126;2023-12-22T00:01:41;15.13;;;1.50;;
33954;SDS011;20233;50.804;7.126;2023-12-22T00:04:08;8.70;;;0.57;;
33954;SDS011;20233;50.804;7.126;2023-12-22T00:06:34;3.85;;;0.85;;
33954;SDS011;20233;50.804;7.126;2023-12-22T00:09:01;4.18;;;0.20;;
33954;SDS011;20233;50.804;7.126;2023-12-22T00:11:27;2.53;;;0.35;;
33954;SDS011;20233;50.804;7.126;2023-12-22T00:13:53;2.15;;;0.10;;
33954;SDS011;20233;50.804;7.126;2023-12-22T00:16:22;7.82;;;0.30;;
33954;SDS011;20233;50.804;7.126;2023-12-22T00:18:48;4.35;;;0.10;;
33954;SDS011;20233;50.804;7.126;2023-12-22T00:21:14;5.53;;;0.95;;
33954;SDS011;20233;50.804;7.126;2023-12-22T00:23:39;0.82;;;0.00;;
33954;SDS011;20233;50.804;7.126;2023-12-22T00:26:06;2.75;;;0.10;;
33954;SDS011;20233;50.804;7.126;2023-12-22T00:28:32;1.15;;;0.10;;
33954;SDS011;20233;50.804;7.126;2023-12-22T00:30:57;1.83;;;0.00;;
33954;SDS011;20233;50.804;7.126;2023-12-22T00:33:24;4.38;;;0.10;;
33954;SDS011;20233;50.804;7.126;2023-12-22T00:35:51;3.00;;;0.10;;
33954;SDS011;20233;50.804;7.126;2023-12-22T00:38:17;3.33;;;0.32;;
33954;SDS011;20233;50.804;7.126;2023-12-22T00:40:46;3.38;;;0.20;;
33954;SDS011;20233;50.804;7.126;2023-12-22T00:43:12;2.42;;;0.15;;
33954;SDS011;20233;50.804;7.126;2023-12-22T00:45:39;8.60;;;0.30;;
33954;SDS011;20233;50.804;7.126;2023-12-22T00:48:05;4.35;;;0.35;;
33954;SDS011;20233;50.804;7.126;2023-12-22T00:50:32;9.00;;;0.85;;
33954;SDS011;20233;50.804;7.126;2023-12-22T00:52:57;3.65;;;0.55;;
33954;SDS011;20233;50.804;7.126;2023-12-22T00:55:24;8.20;;;0.60;;
33954;SDS011;20233;50.804;7.126;2023-12-22T00:57:50;4.32;;;1.10;;
33954;SDS011;20233;50.804;7.126;2023-12-22T01:00:17;5.95;;;1.42;;
33954;SDS011;20233;50.804;7.126;2023-12-22T01:02:47;7.32;;;1.00;;
33954;SDS011;20233;50.804;7.126;2023-12-22T01:05:14;4.57;;;0.82;;
33954;SDS011;20233;50.804;7.126;2023-12-22T01:07:39;8.15;;;1.05;;
33954;SDS011;20233;50.804;7.126;2023-12-22T01:10:06;7.18;;;1.08;;
33954;SDS011;20233;50.804;7.126;2023-12-22T01:12:34;13.10;;;0.60;;
33954;SDS011;20233;50.804;7.126;2023-12-22T01:15:00;6.07;;;0.32;;
33954;SDS011;20233;50.804;7.126;2023-12-22T01:17:27;5.00;;;0.38;;
33954;SDS011;20233;50.804;7.126;2023-12-22T01:19:53;5.63;;;0.70;;
33954;SDS011;20233;50.804;7.126;2023-12-22T01:22:19;9.43;;;0.40;;
33954;SDS011;20233;50.804;7.126;2023-12-22T01:24:45;8.43;;;0.50;;
33954;SDS011;20233;50.804;7.126;2023-12-22T01:27:12;8.18;;;0.50;;
33954;SDS011;20233;50.804;7.126;2023-12-22T01:29:38;5.75;;;0.40;;
33954;SDS011;20233;50.804;7.126;2023-12-22T01:32:05;5.63;;;0.40;;
33954;SDS011;20233;50.804;7.126;2023-12-22T01:34:32;1.92;;;0.20;;
33954;SDS011;20233;50.804;7.126;2023-12-22T01:36:58;8.57;;;0.70;;
33954;SDS011;20233;50.804;7.126;2023-12-22T01:39:24;7.88;;;1.17;;
33954;SDS011;20233;50.804;7.126;2023-12-22T01:41:50;8.85;;;1.40;;
33954;SDS011;20233;50.804;7.126;2023-12-22T01:44:17;4.82;;;0.70;;
33954;SDS011;20233;50.804;7.126;2023-12-22T01:46:42;3.35;;;0.43;;
33954;SDS011;20233;50.804;7.126;2023-12-22T01:49:10;9.43;;;0.70;;
33954;SDS011;20233;50.804;7.126;2023-12-22T01:51:37;11.60;;;3.42;;
33954;SDS011;20233;50.804;7.126;2023-12-22T01:54:06;8.02;;;0.60;;
33954;SDS011;20233;50.804;7.126;2023-12-22T01:56:33;5.28;;;0.70;;
33954;SDS011;20233;50.804;7.126;2023-12-22T01:59:00;8.70;;;3.10;;
33954;SDS011;20233;50.804;7.126;2023-12-22T02:01:27;6.05;;;0.98;;
33954;SDS011;20233;50.804;7.126;2023-12-22T02:03:54;4.43;;;1.20;;
33954;SDS011;20233;50.804;7.126;2023-12-22T02:06:21;9.68;;;1.98;;
33954;SDS011;20233;50.804;7.126;2023-12-22T02:08:47;12.02;;;2.15;;
33954;SDS011;20233;50.804;7.126;2023-12-22T02:11:14;10.90;;;2.80;;
33954;SDS011;20233;50.804;7.126;2023-12-22T02:13:43;8.38;;;2.92;;
33954;SDS011;20233;50.804;7.126;2023-12-22T02:19:21;13.43;;;2.33;;
33954;SDS011;20233;50.804;7.126;2023-12-22T02:24:29;8.38;;;1.85;;
33954;SDS011;20233;50.804;7.126;2023-12-22T02:27:02;11.30;;;1.75;;
33954;SDS011;20233;50.804;7.126;2023-12-22T02:29:38;12.60;;;2.17;;
33954;SDS011;20233;50.804;7.126;2023-12-22T02:32:12;10.90;;;1.63;;
33954;SDS011;20233;50.804;7.126;2023-12-22T02:37:17;10.68;;;2.10;;
33954;SDS011;20233;50.804;7.126;2023-12-22T02:39:47;11.52;;;2.95;;
33954;SDS011;20233;50.804;7.126;2023-12-22T02:42:14;11.65;;;2.38;;
33954;SDS011;20233;50.804;7.126;2023-12-22T02:44:42;7.75;;;1.30;;
33954;SDS011;20233;50.804;7.126;2023-12-22T02:47:08;11.00;;;1.08;;
33954;SDS011;20233;50.804;7.126;2023-12-22T02:49:35;13.02;;;2.75;;
33954;SDS011;20233;50.804;7.126;2023-12-22T02:52:01;11.20;;;0.77;;
33954;SDS011;20233;50.804;7.126;2023-12-22T02:54:28;13.93;;;1.58;;
33954;SDS011;20233;50.804;7.126;2023-12-22T02:56:56;14.80;;;1.75;;
33954;SDS011;20233;50.804;7.126;2023-12-22T02:59:24;10.95;;;1.33;;
33954;SDS011;20233;50.804;7.126;2023-12-22T03:01:51;15.57;;;2.90;;
33954;SDS011;20233;50.804;7.126;2023-12-22T03:04:17;13.73;;;2.05;;
33954;SDS011;20233;50.804;7.126;2023-12-22T03:06:44;16.85;;;2.28;;
33954;SDS011;20233;50.804;7.126;2023-12-22T03:09:11;12.07;;;1.73;;
33954;SDS011;20233;50.804;7.126;2023-12-22T03:11:37;14.73;;;1.92;;
33954;SDS011;20233;50.804;7.126;2023-12-22T03:14:04;16.38;;;3.33;;
33954;SDS011;20233;50.804;7.126;2023-12-22T03:16:31;14.80;;;1.77;;
33954;SDS011;20233;50.804;7.126;2023-12-22T03:18:57;13.45;;;1.85;;
33954;SDS011;20233;50.804;7.126;2023-12-22T03:21:23;16.33;;;1.63;;
33954;SDS011;20233;50.804;7.126;2023-12-22T03:23:49;13.80;;;1.63;;
33954;SDS011;20233;50.804;7.126;2023-12-22T03:26:16;17.02;;;1.98;;
33954;SDS011;20233;50.804;7.126;2023-12-22T03:28:42;19.75;;;2.75;;
33954;SDS011;20233;50.804;7.126;2023-12-22T03:31:08;13.45;;;2.63;;
33954;SDS011;20233;50.804;7.126;2023-12-22T03:33:35;11.05;;;1.30;;
33954;SDS011;20233;50.804;7.126;2023-12-22T03:36:02;12.60;;;1.48;;
33954;SDS011;20233;50.804;7.126;2023-12-22T03:38:30;12.27;;;1.60;;
33954;SDS011;20233;50.804;7.126;2023-12-22T03:40:56;11.95;;;2.72;;
33954;SDS011;20233;50.804;7.126;2023-12-22T03:43:22;13.30;;;2.20;;
33954;SDS011;20233;50.804;7.126;2023-12-22T03:45:50;12.70;;;2.08;;
33954;SDS011;20233;50.804;7.126;2023-12-22T03:48:16;11.88;;;1.52;;
33954;SDS011;20233;50.804;7.126;2023-12-22T03:50:43;20.13;;;1.65;;
33954;SDS011;20233;50.804;7.126;2023-12-22T03:53:09;11.02;;;1.73;;
33954;SDS011;20233;50.804;7.126;2023-12-22T03:55:35;11.90;;;3.00;;
33954;SDS011;20233;50.804;7.126;2023-12-22T03:58:02;13.93;;;2.05;;
33954;SDS011;20233;50.804;7.126;2023-12-22T04:00:30;20.23;;;2.15;;
33954;SDS011;20233;50.804;7.126;2023-12-22T04:02:56;17.92;;;2.40;;
33954;SDS011;20233;50.804;7.126;2023-12-22T04:05:23;13.48;;;2.30;;
33954;SDS011;20233;50.804;7.126;2023-12-22T04:07:49;13.10;;;1.45;;
33954;SDS011;20233;50.804;7.126;2023-12-22T04:10:16;13.80;;;1.50;;
33954;SDS011;20233;50.804;7.126;2023-12-22T04:12:43;11.50;;;1.40;;
33954;SDS011;20233;50.804;7.126;2023-12-22T04:15:10;8.57;;;0.90;;
33954;SDS011;20233;50.804;7.126;2023-12-22T04:17:36;6.20;;;0.65;;
33954;SDS011;20233;50.804;7.126;2023-12-22T04:20:02;23.27;;;2.40;;
33954;SDS011;20233;50.804;7.126;2023-12-22T04:22:30;8.20;;;0.75;;
33954;SDS011;20233;50.804;7.126;2023-12-22T04:24:56;11.65;;;1.75;;
33954;SDS011;20233;50.804;7.126;2023-12-22T04:27:23;4.47;;;0.85;;
33954;SDS011;20233;50.804;7.126;2023-12-22T04:29:49;5.72;;;0.40;;
33954;SDS011;20233;50.804;7.126;2023-12-22T04:32:16;11.38;;;1.70;;
33954;SDS011;20233;50.804;7.126;2023-12-22T04:34:42;10.02;;;1.20;;
33954;SDS011;20233;50.804;7.126;2023-12-22T04:37:09;8.48;;;0.60;;
33954;SDS011;20233;50.804;7.126;2023-12-22T04:39:35;11.68;;;2.03;;
33954;SDS011;20233;50.804;7.126;2023-12-22T04:42:02;8.23;;;1.40;;
33954;SDS011;20233;50.804;7.126;2023-12-22T04:44:28;12.23;;;1.25;;
33954;SDS011;20233;50.804;7.126;2023-12-22T04:46:54;9.90;;;1.40;;
33954;SDS011;20233;50.804;7.126;2023-12-22T04:49:20;13.18;;;1.65;;
33954;SDS011;20233;50.804;7.126;2023-12-22T04:51:46;12.00;;;1.00;;
33954;SDS011;20233;50.804;7.126;2023-12-22T04:54:12;7.85;;;0.50;;
33954;SDS011;20233;50.804;7.126;2023-12-22T04:56:39;9.32;;;1.00;;
33954;SDS011;20233;50.804;7.126;2023-12-22T04:59:06;5.82;;;0.85;;
33954;SDS011;20233;50.804;7.126;2023-12-22T05:01:33;7.18;;;0.47;;
33954;SDS011;20233;50.804;7.126;2023-12-22T05:04:00;7.05;;;0.60;;
33954;SDS011;20233;50.804;7.126;2023-12-22T05:06:27;13.43;;;1.17;;
33954;SDS011;20233;50.804;7.126;2023-12-22T05:08:56;8.88;;;2.60;;
33954;SDS011;20233;50.804;7.126;2023-12-22T05:11:22;10.63;;;0.85;;
33954;SDS011;20233;50.804;7.126;2023-12-22T05:13:48;13.15;;;0.95;;
33954;SDS011;20233;50.804;7.126;2023-12-22T05:16:14;11.18;;;1.10;;
33954;SDS011;20233;50.804;7.126;2023-12-22T05:18:41;7.10;;;0.70;;
33954;SDS011;20233;50.804;7.126;2023-12-22T05:21:08;9.93;;;0.70;;
33954;SDS011;20233;50.804;7.126;2023-12-22T05:23:36;14.23;;;1.20;;
33954;SDS011;20233;50.804;7.126;2023-12-22T05:26:03;13.57;;;0.82;;
33954;SDS011;20233;50.804;7.126;2023-12-22T05:28:30;9.05;;;0.90;;
33954;SDS011;20233;50.804;7.126;2023-12-22T05:30:56;7.10;;;0.68;;
33954;SDS011;20233;50.804;7.126;2023-12-22T05:33:22;8.85;;;0.47;;
33954;SDS011;20233;50.804;7.126;2023-12-22T05:35:48;11.23;;;1.20;;
33954;SDS011;20233;50.804;7.126;2023-12-22T05:38:14;14.98;;;1.25;;
33954;SDS011;20233;50.804;7.126;2023-12-22T05:40:41;14.95;;;1.58;;
33954;SDS011;20233;50.804;7.126;2023-12-22T05:43:08;14.00;;;1.27;;
33954;SDS011;20233;50.804;7.126;2023-12-22T05:45:35;11.35;;;1.30;;
33954;SDS011;20233;50.804;7.126;2023-12-22T05:48:01;13.82;;;1.42;;
33954;SDS011;20233;50.804;7.126;2023-12-22T05:50:27;9.18;;;1.33;;
33954;SDS011;20233;50.804;7.126;2023-12-22T05:52:53;14.98;;;1.95;;
33954;SDS011;20233;50.804;7.126;2023-12-22T05:55:19;13.18;;;0.95;;
33954;SDS011;20233;50.804;7.126;2023-12-22T05:57:46;14.18;;;2.05;;
33954;SDS011;20233;50.804;7.126;2023-12-22T06:00:13;8.13;;;1.20;;
33954;SDS011;20233;50.804;7.126;2023-12-22T06:02:40;12.80;;;1.38;;
33954;SDS011;20233;50.804;7.126;2023-12-22T06:05:07;12.38;;;2.20;;
33954;SDS011;20233;50.804;7.126;2023-12-22T06:07:34;13.70;;;2.35;;
33954;SDS011;20233;50.804;7.126;2023-12-22T06:10:00;12.02;;;2.55;;
33954;SDS011;20233;50.804;7.126;2023-12-22T06:12:26;5.88;;;1.48;;
33954;SDS011;20233;50.804;7.126;2023-12-22T06:14:52;8.90;;;1.40;;
33954;SDS011;20233;50.804;7.126;2023-12-22T06:17:18;10.50;;;0.75;;
33954;SDS011;20233;50.804;7.126;2023-12-22T06:19:46;12.27;;;0.80;;
33954;SDS011;20233;50.804;7.126;2023-12-22T06:22:12;12.10;;;1.25;;
33954;SDS011;20233;50.804;7.126;2023-12-22T06:24:39;11.30;;;1.20;;
33954;SDS011;20233;50.804;7.126;2023-12-22T06:27:05;14.48;;;1.15;;
33954;SDS011;20233;50.804;7.126;2023-12-22T06:29:33;12.15;;;0.93;;
33954;SDS011;20233;50.804;7.126;2023-12-22T06:31:59;11.50;;;1.17;;
33954;SDS011;20233;50.804;7.126;2023-12-22T06:34:26;11.48;;;1.23;;
33954;SDS011;20233;50.804;7.126;2023-12-22T06:36:51;7.80;;;0.85;;
33954;SDS011;20233;50.804;7.126;2023-12-22T06:39:21;17.13;;;1.50;;
33954;SDS011;20233;50.804;7.126;2023-12-22T06:41:48;10.80;;;1.25;;
33954;SDS011;20233;50.804;7.126;2023-12-22T06:44:15;7.65;;;0.80;;
33954;SDS011;20233;50.804;7.126;2023-12-22T06:46:42;9.25;;;0.93;;
33954;SDS011;20233;50.804;7.126;2023-12-22T06:49:08;11.68;;;1.42;;
33954;SDS011;20233;50.804;7.126;2023-12-22T06:51:33;12.10;;;1.10;;
33954;SDS011;20233;50.804;7.126;2023-12-22T06:54:01;8.77;;;1.90;;
33954;SDS011;20233;50.804;7.126;2023-12-22T06:56:28;11.00;;;1.02;;
33954;SDS011;20233;50.804;7.126;2023-12-22T06:58:56;8.77;;;1.05;;
33954;SDS011;20233;50.804;7.126;2023-12-22T07:01:25;13.35;;;1.13;;
33954;SDS011;20233;50.804;7.126;2023-12-22T07:03:53;13.95;;;1.42;;
33954;SDS011;20233;50.804;7.126;2023-12-22T07:06:20;7.65;;;0.63;;
33954;SDS011;20233;50.804;7.126;2023-12-22T07:11:50;2.78;;;0.30;;
33954;SDS011;20233;50.804;7.126;2023-12-22T07:14:20;1.42;;;0.10;;
33954;SDS011;20233;50.804;7.126;2023-12-22T07:16:47;2.13;;;0.10;;
33954;SDS011;20233;50.804;7.126;2023-12-22T07:19:14;1.83;;;0.10;;
33954;SDS011;20233;50.804;7.126;2023-12-22T07:21:41;2.05;;;0.17;;
33954;SDS011;20233;50.804;7.126;2023-12-22T07:24:08;2.63;;;0.20;;
33954;SDS011;20233;50.804;7.126;2023-12-22T07:26:34;2.45;;;0.10;;
33954;SDS011;20233;50.804;7.126;2023-12-22T07:29:01;2.60;;;0.25;;
33954;SDS011;20233;50.804;7.126;2023-12-22T07:31:28;7.70;;;0.98;;
33954;SDS011;20233;50.804;7.126;2023-12-22T07:33:54;3.05;;;0.40;;
33954;SDS011;20233;50.804;7.126;2023-12-22T07:36:20;6.35;;;0.88;;
33954;SDS011;20233;50.804;7.126;2023-12-22T07:38:49;7.55;;;0.77;;
33954;SDS011;20233;50.804;7.126;2023-12-22T07:41:14;13.75;;;1.27;;
33954;SDS011;20233;50.804;7.126;2023-12-22T07:43:40;8.32;;;1.40;;
33954;SDS011;20233;50.804;7.126;2023-12-22T07:46:07;11.50;;;2.53;;
33954;SDS011;20233;50.804;7.126;2023-12-22T07:48:34;11.93;;;1.73;;
33954;SDS011;20233;50.804;7.126;2023-12-22T07:50:59;11.85;;;1.85;;
33954;SDS011;20233;50.804;7.126;2023-12-22T07:53:25;11.85;;;2.03;;
33954;SDS011;20233;50.804;7.126;2023-12-22T07:55:51;15.82;;;2.38;;
33954;SDS011;20233;50.804;7.126;2023-12-22T07:58:17;9.10;;;1.35;;
33954;SDS011;20233;50.804;7.126;2023-12-22T08:00:42;14.35;;;2.13;;
33954;SDS011;20233;50.804;7.126;2023-12-22T08:03:08;9.88;;;1.10;;
33954;SDS011;20233;50.804;7.126;2023-12-22T08:05:34;14.35;;;1.85;;
33954;SDS011;20233;50.804;7.126;2023-12-22T08:08:00;15.50;;;1.80;;
33954;SDS011;20233;50.804;7.126;2023-12-22T08:10:26;15.45;;;2.00;;
33954;SDS011;20233;50.804;7.126;2023-12-22T08:12:52;26.80;;;2.97;;
33954;SDS011;20233;50.804;7.126;2023-12-22T08:15:18;17.83;;;2.63;;
33954;SDS011;20233;50.804;7.126;2023-12-22T08:17:48;22.65;;;2.97;;
33954;SDS011;20233;50.804;7.126;2023-12-22T08:20:19;25.25;;;3.58;;
33954;SDS011;20233;50.804;7.126;2023-12-22T08:22:49;18.50;;;3.05;;
33954;SDS011;20233;50.804;7.126;2023-12-22T08:25:19;17.08;;;2.25;;
33954;SDS011;20233;50.804;7.126;2023-12-22T08:27:47;15.50;;;2.22;;
33954;SDS011;20233;50.804;7.126;2023-12-22T08:30:14;19.98;;;2.67;;
33954;SDS011;20233;50.804;7.126;2023-12-22T08:32:40;39.50;;;5.78;;
33954;SDS011;20233;50.804;7.126;2023-12-22T08:35:06;26.42;;;4.50;;
33954;SDS011;20233;50.804;7.126;2023-12-22T08:37:33;21.23;;;2.22;;
33954;SDS011;20233;50.804;7.126;2023-12-22T08:39:59;28.25;;;3.17;;
33954;SDS011;20233;50.804;7.126;2023-12-22T08:42:25;22.00;;;4.50;;
33954;SDS011;20233;50.804;7.126;2023-12-22T08:44:55;24.42;;;3.20;;
33954;SDS011;20233;50.804;7.126;2023-12-22T08:47:21;15.60;;;2.22;;
33954;SDS011;20233;50.804;7.126;2023-12-22T08:49:47;18.55;;;2.05;;
33954;SDS011;20233;50.804;7.126;2023-12-22T08:52:13;19.30;;;3.03;;
33954;SDS011;20233;50.804;7.126;2023-12-22T08:54:39;16.40;;;3.97;;
33954;SDS011;20233;50.804;7.126;2023-12-22T08:57:06;22.05;;;3.33;;
33954;SDS011;20233;50.804;7.126;2023-12-22T08:59:32;15.55;;;2.00;;
33954;SDS011;20233;50.804;7.126;2023-12-22T09:01:59;18.60;;;1.92;;
33954;SDS011;20233;50.804;7.126;2023-12-22T09:04:26;15.57;;;1.73;;
33954;SDS011;20233;50.804;7.126;2023-12-22T09:06:52;23.90;;;3.28;;
33954;SDS011;20233;50.804;7.126;2023-12-22T09:09:19;21.23;;;2.35;;
33954;SDS011;20233;50.804;7.126;2023-12-22T09:11:47;13.52;;;2.20;;
33954;SDS011;20233;50.804;7.126;2023-12-22T09:14:13;14.50;;;2.15;;
33954;SDS011;20233;50.804;7.126;2023-12-22T09:16:40;14.25;;;2.17;;
33954;SDS011;20233;50.804;7.126;2023-12-22T09:19:10;19.20;;;2.80;;
33954;SDS011;20233;50.804;7.126;2023-12-22T09:21:37;14.80;;;2.42;;
33954;SDS011;20233;50.804;7.126;2023-12-22T09:24:04;15.02;;;1.58;;
33954;SDS011;20233;50.804;7.126;2023-12-22T09:26:31;19.50;;;2.15;;
33954;SDS011;20233;50.804;7.126;2023-12-22T09:28:58;14.07;;;2.40;;
33954;SDS011;20233;50.804;7.126;2023-12-22T09:31:25;18.58;;;3.58;;
33954;SDS011;20233;50.804;7.126;2023-12-22T09:33:51;12.48;;;2.30;;
33954;SDS011;20233;50.804;7.126;2023-12-22T09:36:17;14.82;;;2.33;;
33954;SDS011;20233;50.804;7.126;2023-12-22T09:38:43;15.48;;;2.25;;
33954;SDS011;20233;50.804;7.126;2023-12-22T09:41:09;16.65;;;2.05;;
33954;SDS011;20233;50.804;7.126;2023-12-22T09:43:36;12.90;;;2.55;;
33954;SDS011;20233;50.804;7.126;2023-12-22T09:46:04;9.63;;;2.20;;
33954;SDS011;20233;50.804;7.126;2023-12-22T09:48:33;15.00;;;1.73;;
33954;SDS011;20233;50.804;7.126;2023-12-22T09:51:01;16.17;;;2.08;;
33954;SDS011;20233;50.804;7.126;2023-12-22T09:53:28;13.88;;;1.90;;
33954;SDS011;20233;50.804;7.126;2023-12-22T09:55:56;16.52;;;2.60;;
33954;SDS011;20233;50.804;7.126;2023-12-22T09:58:25;10.77;;;1.65;;
33954;SDS011;20233;50.804;7.126;2023-12-22T10:00:50;13.20;;;2.40;;
33954;SDS011;20233;50.804;7.126;2023-12-22T10:03:17;13.20;;;2.00;;
33954;SDS011;20233;50.804;7.126;2023-12-22T10:05:45;9.25;;;1.25;;
33954;SDS011;20233;50.804;7.126;2023-12-22T10:08:14;13.70;;;1.08;;
33954;SDS011;20233;50.804;7.126;2023-12-22T10:10:42;8.25;;;1.20;;
33954;SDS011;20233;50.804;7.126;2023-12-22T10:13:09;11.75;;;1.08;;
33954;SDS011;20233;50.804;7.126;2023-12-22T10:15:38;6.50;;;0.80;;
33954;SDS011;20233;50.804;7.126;2023-12-22T10:18:09;7.25;;;0.60;;
33954;SDS011;20233;50.804;7.126;2023-12-22T10:20:36;4.40;;;1.15;;
33954;SDS011;20233;50.804;7.126;2023-12-22T10:23:03;11.43;;;1.67;;
33954;SDS011;20233;50.804;7.126;2023-12-22T10:25:30;6.65;;;0.43;;
33954;SDS011;20233;50.804;7.126;2023-12-22T10:27:57;7.07;;;0.75;;
33954;SDS011;20233;50.804;7.126;2023-12-22T10:30:24;8.02;;;0.65;;
33954;SDS011;20233;50.804;7.126;2023-12-22T10:32:50;6.70;;;0.28;;
33954;SDS011;20233;50.804;7.126;2023-12-22T10:35:20;2.90;;;0.38;;
33954;SDS011;20233;50.804;7.126;2023-12-22T10:37:46;10.05;;;1.58;;
33954;SDS011;20233;50.804;7.126;2023-12-22T10:40:14;5.85;;;0.40;;
33954;SDS011;20233;50.804;7.126;2023-12-22T10:42:40;4.85;;;0.60;;
33954;SDS011;20233;50.804;7.126;2023-12-22T10:45:08;3.83;;;0.32;;
33954;SDS011;20233;50.804;7.126;2023-12-22T10:47:35;5.95;;;0.30;;
33954;SDS011;20233;50.804;7.126;2023-12-22T10:50:03;5.38;;;0.40;;
33954;SDS011;20233;50.804;7.126;2023-12-22T10:52:30;5.13;;;1.08;;
33954;SDS011;20233;50.804;7.126;2023-12-22T10:54:59;4.53;;;0.70;;
33954;SDS011;20233;50.804;7.126;2023-12-22T10:57:26;4.07;;;0.52;;
33954;SDS011;20233;50.804;7.126;2023-12-22T10:59:53;5.60;;;0.50;;
33954;SDS011;20233;50.804;7.126;2023-12-22T11:02:26;3.33;;;0.55;;
33954;SDS011;20233;50.804;7.126;2023-12-22T11:05:01;4.85;;;0.45;;
33954;SDS011;20233;50.804;7.126;2023-12-22T11:07:34;4.53;;;0.20;;
33954;SDS011;20233;50.804;7.126;2023-12-22T11:10:03;5.18;;;0.30;;
33954;SDS011;20233;50.804;7.126;2023-12-22T11:12:35;2.97;;;0.20;;
33954;SDS011;20233;50.804;7.126;2023-12-22T11:15:03;2.85;;;0.28;;
33954;SDS011;20233;50.804;7.126;2023-12-22T11:17:35;3.47;;;0.98;;
33954;SDS011;20233;50.804;7.126;2023-12-22T11:20:06;2.22;;;0.20;;
33954;SDS011;20233;50.804;7.126;2023-12-22T11:22:36;3.22;;;0.30;;
33954;SDS011;20233;50.804;7.126;2023-12-22T11:25:04;2.47;;;0.90;;
33954;SDS011;20233;50.804;7.126;2023-12-22T11:27:33;1.95;;;0.55;;
33954;SDS011;20233;50.804;7.126;2023-12-22T11:30:01;3.20;;;0.50;;
33954;SDS011;20233;50.804;7.126;2023-12-22T11:32:34;3.90;;;0.90;;
33954;SDS011;20233;50.804;7.126;2023-12-22T11:35:01;3.13;;;0.68;;
33954;SDS011;20233;50.804;7.126;2023-12-22T11:37:28;2.85;;;0.50;;
33954;SDS011;20233;50.804;7.126;2023-12-22T11:39:58;4.20;;;0.60;;
33954;SDS011;20233;50.804;7.126;2023-12-22T11:42:25;3.75;;;0.90;;
33954;SDS011;20233;50.804;7.126;2023-12-22T11:44:53;2.55;;;0.60;;
33954;SDS011;20233;50.804;7.126;2023-12-22T11:47:23;3.72;;;0.90;;
33954;SDS011;20233;50.804;7.126;2023-12-22T11:49:50;1.45;;;0.52;;
33954;SDS011;20233;50.804;7.126;2023-12-22T11:52:17;3.17;;;0.90;;
33954;SDS011;20233;50.804;7.126;2023-12-22T11:54:50;6.75;;;1.60;;
33954;SDS011;20233;50.804;7.126;2023-12-22T11:59:55;6.18;;;1.45;;
33954;SDS011;20233;50.804;7.126;2023-12-22T12:02:22;6.22;;;1.90;;
33954;SDS011;20233;50.804;7.126;2023-12-22T12:04:49;5.05;;;1.98;;
33954;SDS011;20233;50.804;7.126;2023-12-22T12:13:09;9.35;;;2.75;;
33954;SDS011;20233;50.804;7.126;2023-12-22T12:15:37;6.32;;;2.03;;
33954;SDS011;20233;50.804;7.126;2023-12-22T12:18:05;4.70;;;1.88;;
33954;SDS011;20233;50.804;7.126;2023-12-22T12:20:32;4.68;;;1.80;;
33954;SDS011;20233;50.804;7.126;2023-12-22T12:23:00;5.22;;;1.50;;
33954;SDS011;20233;50.804;7.126;2023-12-22T12:25:27;3.75;;;1.15;;
33954;SDS011;20233;50.804;7.126;2023-12-22T12:28:03;5.10;;;1.13;;
33954;SDS011;20233;50.804;7.126;2023-12-22T12:30:31;5.47;;;1.17;;
33954;SDS011;20233;50.804;7.126;2023-12-22T12:32:59;4.55;;;0.98;;
33954;SDS011;20233;50.804;7.126;2023-12-22T12:35:36;1.63;;;0.70;;
33954;SDS011;20233;50.804;7.126;2023-12-22T12:38:04;3.42;;;0.50;;
33954;SDS011;20233;50.804;7.126;2023-12-22T12:40:31;4.15;;;0.73;;
33954;SDS011;20233;50.804;7.126;2023-12-22T12:43:00;2.95;;;0.60;;
33954;SDS011;20233;50.804;7.126;2023-12-22T12:45:28;2.88;;;0.30;;
33954;SDS011;20233;50.804;7.126;2023-12-22T12:47:57;3.78;;;0.60;;
33954;SDS011;20233;50.804;7.126;2023-12-22T12:50:25;1.70;;;0.50;;
33954;SDS011;20233;50.804;7.126;2023-12-22T12:52:54;3.67;;;0.45;;
33954;SDS011;20233;50.804;7.126;2023-12-22T12:55:22;2.35;;;0.52;;
33954;SDS011;20233;50.804;7.126;2023-12-22T12:57:49;5.55;;;0.93;;
33954;SDS011;20233;50.804;7.126;2023-12-22T13:00:23;3.80;;;0.40;;
33954;SDS011;20233;50.804;7.126;2023-12-22T13:03:00;4.35;;;0.60;;
33954;SDS011;20233;50.804;7.126;2023-12-22T13:05:31;3.35;;;0.80;;
33954;SDS011;20233;50.804;7.126;2023-12-22T13:08:11;2.67;;;0.40;;
33954;SDS011;20233;50.804;7.126;2023-12-22T13:10:39;2.85;;;0.40;;
33954;SDS011;20233;50.804;7.126;2023-12-22T13:13:06;4.82;;;0.60;;
33954;SDS011;20233;50.804;7.126;2023-12-22T13:15:33;2.83;;;0.40;;
33954;SDS011;20233;50.804;7.126;2023-12-22T13:17:59;3.95;;;0.65;;
33954;SDS011;20233;50.804;7.126;2023-12-22T13:20:27;4.97;;;0.82;;
33954;SDS011;20233;50.804;7.126;2023-12-22T13:22:53;4.75;;;0.57;;
33954;SDS011;20233;50.804;7.126;2023-12-22T13:25:20;3.35;;;0.40;;
33954;SDS011;20233;50.804;7.126;2023-12-22T13:27:48;4.35;;;0.73;;
33954;SDS011;20233;50.804;7.126;2023-12-22T13:33:03;0.75;;;0.10;;
33954;SDS011;20233;50.804;7.126;2023-12-22T13:35:30;2.53;;;0.30;;
33954;SDS011;20233;50.804;7.126;2023-12-22T13:37:56;1.92;;;0.30;;
33954;SDS011;20233;50.804;7.126;2023-12-22T13:40:24;3.42;;;0.35;;
33954;SDS011;20233;50.804;7.126;2023-12-22T13:42:54;2.55;;;0.45;;
33954;SDS011;20233;50.804;7.126;2023-12-22T13:45:24;3.55;;;0.30;;
33954;SDS011;20233;50.804;7.126;2023-12-22T13:47:51;2.05;;;0.40;;
33954;SDS011;20233;50.804;7.126;2023-12-22T13:50:18;7.53;;;0.60;;
33954;SDS011;20233;50.804;7.126;2023-12-22T13:52:48;2.23;;;0.50;;
33954;SDS011;20233;50.804;7.126;2023-12-22T13:55:17;3.22;;;0.70;;
33954;SDS011;20233;50.804;7.126;2023-12-22T13:57:45;2.53;;;0.47;;
33954;SDS011;20233;50.804;7.126;2023-12-22T14:00:24;4.53;;;0.40;;
33954;SDS011;20233;50.804;7.126;2023-12-22T14:02:51;2.75;;;0.30;;
33954;SDS011;20233;50.804;7.126;2023-12-22T14:05:21;3.80;;;0.50;;
33954;SDS011;20233;50.804;7.126;2023-12-22T14:07:48;5.50;;;0.55;;
33954;SDS011;20233;50.804;7.126;2023-12-22T14:10:15;6.57;;;1.00;;
33954;SDS011;20233;50.804;7.126;2023-12-22T14:12:41;2.95;;;0.38;;
33954;SDS011;20233;50.804;7.126;2023-12-22T14:15:07;3.90;;;0.60;;
33954;SDS011;20233;50.804;7.126;2023-12-22T14:17:35;3.22;;;0.40;;
33954;SDS011;20233;50.804;7.126;2023-12-22T14:20:03;6.57;;;1.95;;
33954;SDS011;20233;50.804;7.126;2023-12-22T14:22:30;4.85;;;0.40;;
33954;SDS011;20233;50.804;7.126;2023-12-22T14:24:56;3.13;;;0.70;;
33954;SDS011;20233;50.804;7.126;2023-12-22T14:27:23;2.03;;;0.40;;
33954;SDS011;20233;50.804;7.126;2023-12-22T14:29:49;4.50;;;0.40;;
33954;SDS011;20233;50.804;7.126;2023-12-22T14:32:16;5.85;;;0.70;;
33954;SDS011;20233;50.804;7.126;2023-12-22T14:35:02;2.08;;;0.75;;
33954;SDS011;20233;50.804;7.126;2023-12-22T14:37:29;3.65;;;0.47;;
33954;SDS011;20233;50.804;7.126;2023-12-22T14:39:55;4.40;;;0.32;;
33954;SDS011;20233;50.804;7.126;2023-12-22T14:42:22;2.97;;;0.40;;
33954;SDS011;20233;50.804;7.126;2023-12-22T14:44:48;4.60;;;0.30;;
33954;SDS011;20233;50.804;7.126;2023-12-22T14:47:15;3.17;;;0.40;;
33954;SDS011;20233;50.804;7.126;2023-12-22T14:49:42;2.90;;;0.55;;
33954;SDS011;20233;50.804;7.126;2023-12-22T14:52:09;2.88;;;0.40;;
33954;SDS011;20233;50.804;7.126;2023-12-22T14:54:35;2.58;;;0.38;;
33954;SDS011;20233;50.804;7.126;2023-12-22T14:57:02;4.82;;;0.43;;
33954;SDS011;20233;50.804;7.126;2023-12-22T14:59:29;6.38;;;0.60;;
33954;SDS011;20233;50.804;7.126;2023-12-22T15:01:55;2.83;;;0.20;;
33954;SDS011;20233;50.804;7.126;2023-12-22T15:04:22;3.45;;;0.50;;
33954;SDS011;20233;50.804;7.126;2023-12-22T15:06:48;2.35;;;0.63;;